Have a Safe July 4th! 

Flight Track Log - Related Links

Times and Time Zones

All times are in EDT time to prevent confusion due to time zone crossing. See the SWA161 flight status page for this flight to view local times or setup timezone preferences in your user account.

Time Position Orientation Groundspeed Altitude Reporting Facility
EDT Latitude Longitude Course Direction KTS MPH feet Rate Location/Type
Mon 10:27:21 PM 36.1000 -86.6833 180° South 153 176 1,400  Level Nashville TRACON
Mon 10:27:45 PM 36.0833 -86.6833 180° South 164 189 2,200 1,835 Climbing Nashville TRACON
Mon 10:28:46 PM 36.0647 -86.6208 110° East 203 234 4,000 2,579 Climbing Memphis Center
Mon 10:29:46 PM 36.0683 -86.5308 87° East 239 275 7,400 3,250 Climbing Memphis Center
Mon 10:30:46 PM 36.0672 -86.4333 91° East 267 307 10,500 3,150 Climbing Memphis Center
Mon 10:31:46 PM 36.0697 -86.3178 88° East 307 353 13,700 3,200 Climbing Memphis Center
Mon 10:32:46 PM 36.0700 -86.1997 90° East 335 386 16,900 2,850 Climbing Memphis Center
Mon 10:33:46 PM 36.0700 -86.0711 90° East 363 418 19,400 2,442 Climbing Memphis Center
Mon 10:36:05 PM 36.0464 -85.7594 95° East 396 456 25,000 2,291 Climbing Atlanta Center
Mon 10:37:05 PM 36.0378 -85.6153 94° East 408 470 27,000 1,900 Climbing Atlanta Center
Mon 10:38:05 PM 36.0269 -85.4689 95° East 413 475 28,800 1,650 Climbing Atlanta Center
Mon 10:39:05 PM 36.0161 -85.3147 95° East 433 498 30,300 1,550 Climbing Atlanta Center
Mon 10:40:05 PM 36.0053 -85.1606 95° East 445 512 31,900 1,550 Climbing Atlanta Center
Mon 10:41:05 PM 35.9939 -85.0036 95° East 445 512 33,400 1,400 Climbing Atlanta Center
Mon 10:42:05 PM 35.9828 -84.8444 95° East 456 525 34,700 1,200 Climbing Atlanta Center
Mon 10:43:05 PM 35.9692 -84.6700 95° East 463 533 35,800 1,150 Climbing Atlanta Center
Mon 10:44:05 PM 35.9553 -84.5133 96° East 463 533 37,000 600 Climbing Atlanta Center
Mon 10:45:05 PM 35.9411 -84.3542 96° East 463 533 37,000  Level Atlanta Center
Mon 10:46:05 PM 35.9308 -84.1978 95° East 463 533 37,000  Level Atlanta Center
Mon 10:47:05 PM 35.9164 -84.0389 96° East 463 533 37,000  Level Atlanta Center
Mon 10:48:05 PM 35.9142 -83.8822 91° East 463 533 37,000  Level Atlanta Center
Mon 10:49:05 PM 35.9619 -83.7411 67° East 436 502 37,000  Level Atlanta Center
Mon 10:50:05 PM 36.0136 -83.5972 66° East 436 502 37,000  Level Atlanta Center
Mon 10:51:05 PM 36.0611 -83.4711 65° Northeast 453 521 37,000  Level Atlanta Center
Mon 10:52:05 PM 36.1167 -83.3242 65° Northeast 463 533 37,000  Level Atlanta Center
Mon 10:53:05 PM 36.1678 -83.1797 66° East 458 527 37,000  Level Atlanta Center
Mon 10:54:05 PM 36.2189 -83.0350 66° East 458 527 37,000  Level Atlanta Center
Mon 10:55:05 PM 36.2719 -82.8903 66° East 458 527 37,000  Level Atlanta Center
Mon 10:56:05 PM 36.3225 -82.7478 66° East 458 527 37,000  Level Atlanta Center
Mon 10:57:05 PM 36.3753 -82.6050 65° Northeast 458 527 37,000  Level Atlanta Center
Mon 10:58:05 PM 36.4278 -82.4569 66° East 458 527 37,000  Level Atlanta Center
Mon 10:59:05 PM 36.4778 -82.3114 67° East 460 529 37,000  Level Atlanta Center
Mon 11:00:05 PM 36.5300 -82.1683 66° East 460 529 37,000  Level Atlanta Center
Mon 11:01:05 PM 36.5819 -82.0197 66° East 460 529 37,000 -50 Level Atlanta Center
Mon 11:02:05 PM 36.6356 -81.8733 65° Northeast 465 535 36,900 -550 Descending Atlanta Center
Mon 11:03:05 PM 36.6744 -81.7197 72° East 460 529 35,900 -1,050 Descending Atlanta Center
Mon 11:04:05 PM 36.7169 -81.5475 73° East 462 532 34,800 -1,000 Descending Atlanta Center
Mon 11:05:05 PM 36.7514 -81.3936 74° East 457 526 33,900 -900 Descending Atlanta Center
Mon 11:06:05 PM 36.7797 -81.2606 75° East 456 525 33,000 -956 Descending Atlanta Center
Mon 11:08:07 PM 36.8572 -80.9264 74° East 486 559 31,000 -956 Descending Washington Center
Mon 11:09:07 PM 36.8886 -80.7806 75° East 463 533 30,100 -958 Descending Washington Center
Mon 11:10:06 PM 36.9244 -80.6272 74° East 452 520 29,100 -1,350 Descending Washington Center
Mon 11:11:07 PM 36.9508 -80.4936 76° East 447 514 27,400 -1,350 Descending Washington Center
Mon 11:12:06 PM 36.9839 -80.3475 74° East 447 514 26,400 -958 Descending Washington Center
Mon 11:13:06 PM 37.0122 -80.2064 76° East 435 501 25,500 -942 Descending Washington Center
Mon 11:14:07 PM 37.0408 -80.0572 76° East 430 495 24,500 -1,041 Descending Washington Center
Mon 11:15:07 PM 36.9944 -79.9036 111° Southeast 411 473 23,400 -1,008 Descending Washington Center
Mon 11:16:06 PM 36.9450 -79.7683 115° Southeast 419 482 22,500 -950 Descending Washington Center
Mon 11:17:07 PM 36.8975 -79.6331 114° Southeast 419 482 21,500 -992 Descending Washington Center
Mon 11:18:07 PM 36.8575 -79.5169 113° Southeast 419 482 20,500 -1,000 Descending Washington Center
Mon 11:19:07 PM 36.8114 -79.3925 115° Southeast 403 464 19,500 -958 Descending Washington Center
Mon 11:20:06 PM 36.7653 -79.2683 115° Southeast 397 457 18,600 -872 Descending Washington Center
Mon 11:21:04 PM 36.7192 -79.1392 114° Southeast 382 440 17,800 -884 Descending Washington Center
Mon 11:21:41 PM 36.6958 -79.0761 115° Southeast 376 433 17,200 -762 Descending Washington Center
Mon 11:22:07 PM 36.6722 -79.0233 119° Southeast 380 437 17,000 -500 Descending Washington Center
Mon 11:22:41 PM 36.6189 -78.9975 159° South 345 397 16,700 -1,220 Descending Washington Center
Mon 11:23:06 PM 36.5814 -78.9908 172° South 326 375 15,800 -2,262 Descending Washington Center
Mon 11:23:42 PM 36.5236 -78.9700 164° South 338 389 14,400 -2,361 Descending Washington Center
Mon 11:24:07 PM 36.4906 -78.9636 171° South 326 375 13,400 -2,262 Descending Washington Center
Mon 11:24:43 PM 36.4306 -78.9456 166° South 347 399 12,100 -1,322 Descending Washington Center
Mon 11:25:06 PM 36.3994 -78.9364 167° South 332 382 12,100  Level Washington Center
Mon 11:25:43 PM 36.3414 -78.9183 166° South 325 374 12,100  Level Washington Center
Mon 11:26:07 PM 36.3186 -78.9122 168° South 337 388 12,100 -1,377 Level Washington Center
Mon 11:26:44 PM 36.2544 -78.8967 169° South 326 375 10,700 -1,800 Descending Washington Center
Mon 11:27:07 PM 36.2192 -78.8850 165° South 332 382 10,300 -1,100 Descending Washington Center
Mon 11:27:44 PM 36.1736 -78.8728 168° South 294 338 9,600 -1,200 Descending Washington Center
Mon 11:28:07 PM 36.1489 -78.8639 164° South 303 349 9,100 -1,180 Descending Washington Center
Mon 11:28:45 PM 36.0972 -78.8517 169° South 263 303 8,400 -1,000 Descending Washington Center
Mon 11:29:07 PM 36.0744 -78.8456 168° South 278 320 8,100 -295 Descending Washington Center
Mon 11:29:46 PM 36.0286 -78.8411 176° South 231 266 8,100  Level Washington Center
Mon 11:30:07 PM 36.0097 -78.8428 184° South 249 287 8,100 -1,000 Level Washington Center
Mon 11:30:46 PM 35.9656 -78.8514 189° South 231 266 7,100 -1,260 Descending Washington Center
Mon 11:31:47 PM 35.9142 -78.9006 218° Southwest 233 268 6,000 -1,240 Descending Washington Center
Mon 11:32:47 PM 35.8689 -78.9575 226° Southwest 234 269 4,600 -1,370 Descending Washington Center
Mon 11:33:54 PM 35.8128 -79.0192 222° Southwest 251 289 3,100 -806 Descending Washington Center
Mon 11:35:01 PM 35.7661 -78.9736 142° Southeast 168 193 2,800 -283 Descending Washington Center
Mon 11:36:01 PM 35.7694 -78.9250 85° East 152 175 2,500 -236 Descending Washington Center
Mon 11:37:08 PM 35.7981 -78.8803 52° Northeast 139 160 2,300 -422 Descending Washington Center
Mon 11:38:09 PM 35.8217 -78.8478 48° Northeast 129 148 1,600 -694 Descending Washington Center
Mon 11:39:09 PM 35.8475 -78.8183 43° Northeast 124 143 900 -700 Descending Washington Center
Mon 11:41:00 PM 35.8667 -78.7833 90° East  Level FlightAware Approximate

Login

Don't have an account? Register now (free) for customized features, flight alerts, and more!